Flight Track Log - Related Links

Times and Time Zones

All times are in EST time to prevent confusion due to time zone crossing. See the UAL33 flight status page for this flight to view local times or setup timezone preferences in your user account.

Time Position Orientation Groundspeed Altitude Reporting Facility
EST Latitude Longitude Course Direction KTS MPH feet Rate Location/Type
04:47AM 36.0085 140.8318 56° Northeast  Level FlightAware Approximate
04:48AM 36.0894 140.9809 56° Northeast  Level FlightAware Approximate
04:48AM 35.5410 140.5370 56° Northeast 287 330 8,600  Level FlightAware ADS-B
04:48AM 35.5150 140.5550 151° Southeast 290 334 9,400 219 Climbing FlightAware ADS-B
04:51AM 35.6832 140.8641 56° Northeast  Level Estimated
04:52AM 35.7636 141.0129 56° Northeast  Level Estimated
04:53AM 35.8439 141.1621 56° Northeast  Level Estimated
04:54AM 35.9240 141.3115 56° Northeast  Level Estimated
04:55AM 36.0039 141.4612 57° Northeast  Level Estimated
04:56AM 36.0836 141.6113 57° Northeast  Level Estimated
04:57AM 36.1631 141.7616 57° Northeast  Level Estimated
04:58AM 36.2425 141.9123 57° Northeast  Level Estimated
04:59AM 36.3216 142.0632 57° Northeast  Level Estimated
05:00AM 36.4005 142.2145 57° Northeast  Level Estimated
05:01AM 36.4793 142.3660 57° Northeast  Level Estimated
05:02AM 36.5579 142.5179 57° Northeast  Level Estimated
05:03AM 36.6362 142.6701 57° Northeast  Level Estimated
05:04AM 36.7144 142.8226 57° Northeast  Level Estimated
05:05AM 36.7924 142.9754 57° Northeast  Level Estimated
05:06AM 36.8702 143.1285 58° Northeast  Level Estimated
05:07AM 36.9478 143.2819 58° Northeast  Level Estimated
05:08AM 37.0252 143.4357 58° Northeast  Level Estimated
05:09AM 37.1024 143.5897 58° Northeast  Level Estimated
05:10AM 37.1794 143.7441 58° Northeast  Level Estimated
05:11AM 37.2562 143.8988 58° Northeast  Level Estimated
05:12AM 37.3328 144.0538 58° Northeast  Level Estimated
05:13AM 37.4092 144.2091 58° Northeast  Level Estimated
05:14AM 37.4854 144.3647 58° Northeast  Level Estimated
05:15AM 37.5614 144.5207 58° Northeast  Level Estimated
05:16AM 37.6372 144.6769 58° Northeast  Level Estimated
05:17AM 37.7127 144.8335 59° Northeast  Level Estimated
05:18AM 37.7881 144.9904 59° Northeast  Level Estimated
05:19AM 37.8644 145.1500 59° Northeast  Level Estimated
05:20AM 37.9405 145.3098 59° Northeast  Level Estimated
05:21AM 38.0163 145.4701 59° Northeast  Level Estimated
05:22AM 38.0919 145.6306 59° Northeast  Level Estimated
05:23AM 38.1673 145.7915 59° Northeast  Level Estimated
05:24AM 38.2425 145.9527 59° Northeast  Level Estimated
05:25AM 38.3175 146.1143 59° Northeast  Level Estimated
05:26AM 38.3922 146.2762 59° Northeast  Level Estimated
05:27AM 38.4668 146.4384 60° Northeast  Level Estimated
05:28AM 38.5410 146.6010 60° Northeast  Level Estimated
05:29AM 38.6151 146.7638 60° Northeast  Level Estimated
05:30AM 38.6890 146.9271 60° Northeast  Level Estimated
05:31AM 38.7626 147.0906 60° Northeast  Level Estimated
05:32AM 38.8360 147.2545 60° Northeast  Level Estimated
05:33AM 38.9091 147.4188 60° Northeast  Level Estimated
05:34AM 38.9821 147.5834 60° Northeast  Level Estimated
05:35AM 39.0548 147.7483 60° Northeast  Level Estimated
05:36AM 39.1272 147.9135 60° Northeast  Level Estimated
05:37AM 39.1995 148.0791 61° Northeast  Level Estimated
05:38AM 39.2715 148.2451 61° Northeast  Level Estimated
05:39AM 39.3432 148.4114 61° Northeast  Level Estimated
05:40AM 39.4147 148.5780 61° Northeast  Level Estimated
05:41AM 39.4860 148.7449 61° Northeast  Level Estimated
05:42AM 39.5570 148.9122 61° Northeast  Level Estimated
05:43AM 39.6278 149.0799 61° Northeast  Level Estimated
05:44AM 39.6984 149.2479 61° Northeast  Level Estimated
05:45AM 39.7687 149.4162 61° Northeast  Level Estimated
05:46AM 39.8388 149.5849 62° Northeast  Level Estimated
05:47AM 39.9086 149.7539 62° Northeast  Level Estimated
05:48AM 39.9782 149.9233 62° Northeast  Level Estimated
05:49AM 40.0476 150.0930 62° Northeast  Level Estimated
05:50AM 40.1167 150.2630 62° Northeast  Level Estimated
05:51AM 40.1855 150.4334 62° Northeast  Level Estimated
05:52AM 40.2541 150.6042 62° Northeast  Level Estimated
05:53AM 40.3224 150.7753 62° Northeast  Level Estimated
05:54AM 40.3905 150.9467 62° Northeast  Level Estimated
05:55AM 40.4584 151.1185 63° Northeast  Level Estimated
05:56AM 40.5259 151.2906 63° Northeast  Level Estimated
05:57AM 40.5933 151.4631 63° Northeast  Level Estimated
05:58AM 40.6603 151.6359 63° Northeast  Level Estimated
05:59AM 40.7271 151.8091 63° Northeast  Level Estimated
06:00AM 40.7937 151.9826 63° Northeast  Level Estimated
06:01AM 40.8600 152.1565 63° Northeast  Level Estimated
06:02AM 40.9260 152.3307 63° Northeast  Level Estimated
06:03AM 40.9918 152.5052 63° Northeast  Level Estimated
06:04AM 41.0573 152.6801 64° Northeast  Level Estimated
06:05AM 41.1225 152.8554 64° Northeast  Level Estimated
06:06AM 41.1875 153.0310 64° Northeast  Level Estimated
06:07AM 41.2522 153.2070 64° Northeast  Level Estimated
06:08AM 41.3166 153.3833 64° Northeast  Level Estimated
06:09AM 41.3808 153.5599 64° Northeast  Level Estimated
06:10AM 41.4446 153.7369 64° Northeast  Level Estimated
06:11AM 41.5083 153.9142 64° Northeast  Level Estimated
06:12AM 41.5716 154.0919 64° Northeast  Level Estimated
06:13AM 41.6347 154.2700 65° Northeast  Level Estimated
06:14AM 41.6975 154.4484 65° Northeast  Level Estimated
06:15AM 41.7600 154.6271 65° Northeast  Level Estimated
06:16AM 41.8223 154.8062 65° Northeast  Level Estimated
06:17AM 41.8842 154.9856 65° Northeast  Level Estimated
06:18AM 41.9459 155.1654 65° Northeast  Level Estimated
06:19AM 42.0073 155.3455 65° Northeast  Level Estimated
06:20AM 42.0685 155.5260 65° Northeast  Level Estimated
06:21AM 42.1293 155.7068 66° East  Level Estimated
06:22AM 42.1898 155.8880 66° East  Level Estimated
06:23AM 42.2501 156.0695 66° East  Level Estimated
06:24AM 42.3101 156.2514 66° East  Level Estimated
06:25AM 42.3698 156.4336 66° East  Level Estimated
06:26AM 42.4292 156.6161 66° East  Level Estimated
06:27AM 42.4883 156.7990 66° East  Level Estimated
06:28AM 42.5471 156.9823 66° East  Level Estimated
06:29AM 42.6057 157.1658 67° East  Level Estimated
06:30AM 42.6639 157.3498 67° East  Level Estimated
06:31AM 42.7219 157.5341 67° East  Level Estimated
06:32AM 42.7795 157.7187 67° East  Level Estimated
06:33AM 42.8369 157.9036 67° East  Level Estimated
06:34AM 42.8939 158.0889 67° East  Level Estimated
06:35AM 42.9507 158.2746 67° East  Level Estimated
06:36AM 43.0071 158.4606 67° East  Level Estimated
06:37AM 43.0633 158.6469 68° East  Level Estimated
06:38AM 43.1191 158.8336 68° East  Level Estimated
06:39AM 43.1746 159.0206 68° East  Level Estimated
06:40AM 43.2299 159.2079 68° East  Level Estimated
06:41AM 43.2848 159.3956 68° East  Level Estimated
06:42AM 43.3395 159.5837 68° East  Level Estimated
06:43AM 43.3938 159.7720 68° East  Level Estimated
06:44AM 43.4478 159.9608 68° East  Level Estimated
06:45AM 43.5015 160.1498 69° East  Level Estimated
06:46AM 43.5543 160.3371 69° East  Level Estimated
06:47AM 43.6068 160.5247 69° East  Level Estimated
06:48AM 43.6590 160.7126 69° East  Level Estimated
06:49AM 43.7108 160.9009 69° East  Level Estimated
06:50AM 43.7624 161.0895 69° East  Level Estimated
06:51AM 43.8136 161.2784 69° East  Level Estimated
06:52AM 43.8646 161.4677 69° East  Level Estimated
06:53AM 43.9152 161.6572 70° East  Level Estimated
06:54AM 43.9655 161.8471 70° East  Level Estimated
06:55AM 44.0155 162.0373 70° East  Level Estimated
06:56AM 44.0652 162.2278 70° East  Level Estimated
06:57AM 44.1146 162.4187 70° East  Level Estimated
06:58AM 44.1636 162.6098 70° East  Level Estimated
06:59AM 44.2124 162.8013 70° East  Level Estimated
07:00AM 44.2608 162.9931 71° East  Level Estimated
07:01AM 44.3089 163.1852 71° East  Level Estimated
07:02AM 44.3566 163.3776 71° East  Level Estimated
07:03AM 44.4041 163.5704 71° East  Level Estimated
07:04AM 44.4512 163.7634 71° East  Level Estimated
07:05AM 44.4980 163.9568 71° East  Level Estimated
07:06AM 44.5445 164.1505 71° East  Level Estimated
07:07AM 44.5906 164.3444 71° East  Level Estimated
07:07AM 42.2667 167.1500 70° East 517 595 39,000  Level Oakland Oceanic (ODAPS)
07:21AM 42.9167 169.6333 73° East 500 575 39,000  Level Oakland Oceanic (ODAPS)
07:23AM 43.0000 170.0000 79° East 518 596 39,000  Level Oakland Oceanic (ODAPS)
07:35AM 43.3167 172.3333 80° East 537 618 39,000  Level Oakland Oceanic (ODAPS)
07:48AM 43.6167 175.0333 82° East 522 601 39,000  Level Oakland Oceanic (ODAPS)
08:02AM 43.8667 177.8167 84° East 522 601 39,000  Level Oakland Oceanic (ODAPS)
08:13AM 44.0000 180.0000 71° East 529 609 39,000  Level Oakland Oceanic (ODAPS)
08:16AM 44.1500 -179.4333 71° East 530 610 39,000  Level Oakland Oceanic (ODAPS)
08:30AM 44.7667 -176.7500 73° East 538 619 39,000  Level Oakland Oceanic (ODAPS)
08:44AM 45.3333 -173.9167 75° East 538 619 39,000  Level Oakland Oceanic (ODAPS)
08:58AM 45.8500 -171.0167 78° East 554 638 39,000 54 Level Oakland Oceanic (ODAPS)
09:03AM 46.0000 -170.0000 86° East 551 634 40,000 -144 Climbing Oakland Oceanic (ODAPS)
09:12AM 46.0667 -167.9333 88° East 594 684 37,000 -130 Descending Oakland Oceanic (ODAPS)
09:26AM 46.1167 -164.6167 90° East 606 697 37,000  Level Oakland Oceanic (ODAPS)
09:39AM 46.0500 -161.2167 93° East 617 710 37,000  Level Oakland Oceanic (ODAPS)
09:44AM 46.0000 -160.0000 102° East 606 697 37,000  Level Oakland Oceanic (ODAPS)
09:53AM 45.6667 -157.8833 104° East 605 696 37,000  Level Oakland Oceanic (ODAPS)
10:07AM 45.0667 -154.6667 106° East 606 697 37,000 -36 Level Oakland Oceanic (ODAPS)
10:21AM 44.3667 -151.4833 109° East 597 687 36,000 -48 Descending Oakland Oceanic (ODAPS)
10:28AM 44.0000 -150.0000 102° East 583 671 36,000  Level Oakland Oceanic (ODAPS)
10:35AM 43.7500 -148.4167 103° East 580 667 36,000  Level Oakland Oceanic (ODAPS)
10:49AM 43.2167 -145.4833 105° East 557 641 36,000  Level Oakland Oceanic (ODAPS)
10:51AM 43.1333 -145.0000 105° East 552 635 36,000 79 Level Oakland Oceanic (ODAPS)
11:03AM 42.6500 -142.7833 107° East 533 613 37,100 158 Climbing Oakland Oceanic (ODAPS)
11:17AM 42.0500 -140.2167 107° East 526 605 40,000 192 Climbing Oakland Oceanic (ODAPS)
11:18AM 42.0000 -140.0000 102° East 507 583 40,000 72 Level Oakland Oceanic (ODAPS)
11:30AM 41.6167 -137.6667 103° East 491 565 41,000 38 Climbing Oakland Oceanic (ODAPS)
11:44AM 41.1667 -135.2167 105° East 498 573 41,000  Level Oakland Oceanic (ODAPS)
11:58AM 40.6667 -132.8667 106° East 477 549 41,000  Level Oakland Oceanic (ODAPS)
12:12PM 40.1333 -130.5500 107° East 490 564 41,000  Level Oakland Oceanic (ODAPS)
12:15PM 40.0000 -130.0000 122° Southeast 489 563 41,000  Level Oakland Oceanic (ODAPS)
12:17PM 39.9000 -129.8000 123° Southeast 485 558 41,000  Level Oakland Oceanic (ODAPS)
12:26PM 39.2167 -128.4333 123° Southeast 489 563 41,000  Level Oakland Oceanic (ODAPS)
12:33PM 38.6878 -127.4192 111° Southeast 490 564 41,000  Level Oakland Center
12:34PM 38.6181 -127.2843 124° Southeast 489 563 41,000  Level FlightAware Transoceanic
12:34PM 38.5967 -127.2436 124° Southeast 491 565 41,000  Level Oakland Center
12:35PM 38.5424 -127.1420 124° Southeast 489 563 41,000 -98 Level FlightAware Transoceanic
12:35PM 38.5211 -127.1003 124° Southeast 491 565 40,900  Descending Oakland Center
12:36PM 38.4667 -127.0000 111° Southeast 489 563 41,000 98 Climbing FlightAware Transoceanic
12:36PM 38.4542 -126.9539 120° Southeast 486 559 41,000  Level Oakland Center
12:37PM 38.4158 -126.8324 111° Southeast 489 563 41,000  Level FlightAware Transoceanic
12:37PM 38.3981 -126.7958 114° Southeast 491 565 41,000  Level Oakland Center
12:38PM 38.3646 -126.6650 111° Southeast 489 563 41,000 -98 Level FlightAware Transoceanic
12:38PM 38.3425 -126.6439 115° Southeast 485 558 40,900 -65 Descending Oakland Center
12:39PM 38.2867 -126.4908 115° Southeast 481 554 40,900  Level Oakland Center
12:40PM 38.2306 -126.3356 115° Southeast 482 555 40,900  Level Oakland Center
12:41PM 38.1736 -126.1814 115° Southeast 482 555 40,900  Level Oakland Center
12:42PM 38.1053 -125.9981 115° Southeast 481 554 40,900 49 Level Oakland Center
12:43PM 38.0489 -125.8461 115° Southeast 479 551 41,000  Climbing Oakland Center
12:44PM 37.9919 -125.6961 116° Southeast 476 548 40,900 -49 Descending Oakland Center
12:45PM 37.9361 -125.5458 115° Southeast 475 547 40,900 49 Level Oakland Center
12:46PM 37.8806 -125.3969 115° Southeast 472 543 41,000 49 Climbing Oakland Center
12:47PM 37.8189 -125.2475 118° Southeast 475 547 41,000  Level Oakland Center
12:48PM 37.7639 -125.0994 115° Southeast 472 543 41,000  Level Oakland Center
12:49PM 37.7114 -124.9528 114° Southeast 465 535 41,000  Level Oakland Center
12:50PM 37.6536 -124.8028 116° Southeast 473 544 41,000 -49 Level Oakland Center
12:51PM 37.5847 -124.6264 116° Southeast 472 543 40,900  Descending Oakland Center
12:52PM 37.5264 -124.4786 116° Southeast 472 543 41,000  Climbing Oakland Center
12:53PM 37.4694 -124.3333 116° Southeast 469 540 40,900 -49 Descending Oakland Center
12:54PM 37.4139 -124.1869 116° Southeast 469 540 40,900 49 Level Oakland Center
12:55PM 37.3561 -124.0408 116° Southeast 468 539 41,000  Climbing Oakland Center
12:56PM 37.2983 -123.8956 117° Southeast 468 539 40,900 -49 Descending Oakland Center
12:57PM 37.2417 -123.7525 116° Southeast 464 534 40,900 49 Level Oakland Center
12:58PM 37.1728 -123.5783 116° Southeast 467 537 41,000 49 Climbing Oakland Center
01:00PM 37.1139 -123.4319 117° Southeast 472 543 41,000 -49 Level Oakland Center
01:01PM 37.0542 -123.2869 117° Southeast 472 543 40,900  Descending Oakland Center
01:02PM 36.9956 -123.1408 117° Southeast 473 544 41,000 49 Climbing Oakland Center
01:03PM 36.9356 -122.9931 117° Southeast 478 550 41,000  Level Oakland Center
01:08PM 36.5873 -122.1500 117° Southeast 447 514 41,000  Level FlightAware ADS-B
01:09PM 36.5256 -122.0044 117° Southeast 444 511 41,000 -44 Level Los Angeles Center
01:11PM 36.4683 -121.8700 118° Southeast 442 509 40,900  Descending Los Angeles Center
01:12PM 36.4103 -121.7353 118° Southeast 442 509 41,000 48 Climbing Los Angeles Center
01:13PM 36.3531 -121.6003 118° Southeast 442 509 41,000 -48 Level Los Angeles Center
01:14PM 36.2842 -121.4367 118° Southeast 445 512 40,900 -44 Descending Los Angeles Center
01:15PM 36.2122 -121.2739 119° Southeast 452 520 40,900 44 Level Oakland Center
01:16PM 36.1528 -121.1344 118° Southeast 456 525 41,000 49 Climbing Oakland Center
01:17PM 36.0939 -120.9972 118° Southeast 454 522 41,000 -49 Level Oakland Center
01:18PM 36.0336 -120.8583 118° Southeast 457 526 40,900  Descending Oakland Center
01:19PM 35.9733 -120.7194 118° Southeast 458 527 41,000  Climbing Oakland Center
01:20PM 35.9136 -120.5808 118° Southeast 459 528 40,900 -49 Descending Oakland Center
01:21PM 35.8522 -120.4411 118° Southeast 459 528 40,900  Level Oakland Center
01:22PM 35.7897 -120.3017 119° Southeast 461 531 40,900  Level Oakland Center
01:23PM 35.7278 -120.1578 118° Southeast 465 535 40,900  Level Oakland Center
01:24PM 35.6275 -120.0414 137° Southeast 484 557 40,900  Level Oakland Center
01:25PM 35.5169 -119.9367 142° Southeast 494 568 40,900 -744 Level Los Angeles Center
01:26PM 35.4086 -119.8381 143° Southeast 484 557 39,400 -2,081 Descending Los Angeles Center
01:27PM 35.2808 -119.7186 143° Southeast 479 551 36,600 -2,661 Descending Los Angeles Center
01:28PM 35.1742 -119.6206 143° Southeast 478 550 33,900 -2,736 Descending Los Angeles Center
01:29PM 35.0661 -119.5225 143° Southeast 482 555 30,900 -2,544 Descending Los Angeles Center
01:30PM 34.9578 -119.4239 143° Southeast 484 557 28,600 -2,274 Descending Los Angeles Center
01:31PM 34.8519 -119.3292 144° Southeast 477 549 26,200 -2,177 Descending Los Angeles Center
01:32PM 34.7508 -119.2372 143° Southeast 462 532 24,100 -2,516 Descending Los Angeles Center
01:33PM 34.6428 -119.1394 143° Southeast 412 474 21,000 -2,323 Descending Los Angeles Center
01:34PM 34.5578 -119.0625 143° Southeast 384 442 19,300 -1,645 Descending Los Angeles Center
01:35PM 34.4747 -118.9878 143° Southeast 370 426 17,600 -1,584 Descending Los Angeles Center
01:36PM 34.3933 -118.9133 143° Southeast 364 419 16,000 -1,536 Descending Los Angeles Center
01:37PM 34.3061 -118.8619 154° Southeast 347 399 14,400 -1,548 Descending Los Angeles Center
01:38PM 34.2144 -118.8294 164° South 343 395 12,800 -1,500 Descending Los Angeles Center
01:40PM 34.1081 -118.7903 163° South 331 381 11,300 -1,258 Descending Los Angeles Center
01:41PM 34.0572 -118.7103 127° Southeast 298 343 10,200 -823 Descending Los Angeles Center
01:42PM 34.0394 -118.6164 103° East 289 333 9,600 -1,161 Descending Los Angeles Center
01:43PM 34.0228 -118.5244 102° East 282 325 7,800 -1,258 Descending Los Angeles Center
01:44PM 34.0125 -118.4419 99° East 271 312 7,000 -1,248 Descending Los Angeles Center
01:45PM 34.0219 -118.3556 82° East 263 303 5,200 -1,824 Descending Los Angeles Center
01:46PM 34.0328 -118.2572 82° East 250 288 3,200 -1,306 Descending Los Angeles Center
01:47PM 34.0267 -118.1881 96° East 231 266 2,500 -339 Descending Los Angeles Center
01:48PM 33.9828 -118.2181 210° Southwest 215 247 2,500 -265 Level Los Angeles Center
01:49PM 33.9639 -118.2908 253° West 203 234 1,900 -613 Descending Los Angeles Center
01:50PM 33.9583 -118.3453 263° West 183 211 1,100 -864 Descending Los Angeles Center
01:51PM 33.9533 -118.4028 264° West 158 182 100 -968 Descending Los Angeles Center

Login

Don't have an account? Register now (free) for customized features, flight alerts, and more!